Time;durP1;ratioP1;P1;durP2;ratioP2;P2;SDS_P1;SDS_P2;PMS_P1;PMS_P2;Temp;Humidity;BMP_temperature;BMP_pressure;BME280_temperature;BME280_humidity;BME280_pressure;Samples;Min_cycle;Max_cycle;Signal;HPM_P1;HPM_P2
2022/06/10 00:02:21;;;;;;;14.17;5.40;;;16.50;46.20;;;;;;5044220;28;20202;-71
2022/06/10 00:04:47;;;;;;;11.00;4.93;;;16.40;45.90;;;;;;5034019;28;20256;-71
2022/06/10 00:07:12;;;;;;;14.20;4.90;;;16.40;46.50;;;;;;5032104;28;20259;-71
2022/06/10 00:09:38;;;;;;;15.53;4.80;;;16.30;46.40;;;;;;5043113;28;20176;-71
2022/06/10 00:12:04;;;;;;;9.50;4.73;;;16.40;46.90;;;;;;5043441;28;20568;-71
2022/06/10 00:14:31;;;;;;;6.90;4.60;;;16.30;47.80;;;;;;5050688;28;20183;-71
2022/06/10 00:16:56;;;;;;;9.87;5.37;;;16.20;48.70;;;;;;5042342;28;20457;-73
2022/06/10 00:19:22;;;;;;;8.27;5.27;;;16.30;48.50;;;;;;5048817;28;20458;-71
2022/06/10 00:21:48;;;;;;;9.63;5.20;;;16.20;47.80;;;;;;5044282;28;20221;-71
2022/06/10 00:24:13;;;;;;;9.07;4.97;;;16.30;47.00;;;;;;5031645;28;20191;-71
2022/06/10 00:26:39;;;;;;;13.53;5.83;;;16.40;46.90;;;;;;5031957;28;20188;-72
2022/06/10 00:29:05;;;;;;;10.07;5.27;;;16.40;47.60;;;;;;5040547;28;20182;-72
2022/06/10 00:31:30;;;;;;;19.00;6.03;;;16.50;47.80;;;;;;5042947;28;20662;-71
2022/06/10 00:33:56;;;;;;;12.13;6.10;;;16.40;46.70;;;;;;5047988;28;20187;-71
2022/06/10 00:36:23;;;;;;;20.37;6.10;;;16.60;46.10;;;;;;5051650;28;20178;-71
2022/06/10 00:38:49;;;;;;;14.73;6.23;;;16.30;46.70;;;;;;5049544;28;20659;-71
2022/06/10 00:41:15;;;;;;;11.33;6.50;;;16.30;49.10;;;;;;5041394;28;20478;-71
2022/06/10 00:43:41;;;;;;;11.53;6.40;;;16.20;48.20;;;;;;5036989;28;20453;-73
2022/06/10 00:46:28;;;;;;;13.50;6.57;;;16.10;49.30;;;;;;5031486;28;20529;-71
2022/06/10 00:49:14;;;;;;;12.87;6.60;;;16.10;48.60;;;;;;5031469;28;20419;-71
2022/06/10 00:51:46;;;;;;;10.83;6.43;;;16.10;49.00;;;;;;5043773;28;20495;-72
2022/06/10 00:54:35;;;;;;;15.20;6.80;;;15.90;50.90;;;;;;5050429;28;20944;-71
2022/06/10 00:57:10;;;;;;;10.93;7.00;;;16.00;49.60;;;;;;5050930;28;20447;-71
2022/06/10 00:59:43;;;;;;;22.87;7.40;;;16.00;49.30;;;;;;5043577;28;20432;-72
2022/06/10 01:02:15;;;;;;;12.10;7.60;;;16.00;49.10;;;;;;5045569;28;20429;-71
2022/06/10 01:04:42;;;;;;;20.87;8.00;;;15.90;49.90;;;;;;5044264;28;20477;-71
2022/06/10 01:07:10;;;;;;;14.47;8.50;;;15.90;49.00;;;;;;5042747;28;20437;-71
2022/06/10 01:09:37;;;;;;;19.93;8.37;;;15.90;49.00;;;;;;5051265;28;20406;-71
2022/06/10 01:12:22;;;;;;;16.27;7.20;;;15.90;49.90;;;;;;5048692;28;20532;-71
2022/06/10 01:15:29;;;;;;;11.10;6.43;;;15.90;50.60;;;;;;5046211;28;20818;-71
2022/06/10 01:18:01;;;;;;;11.20;6.13;;;15.80;50.70;;;;;;5048825;28;20525;-71
2022/06/10 01:21:01;;;;;;;16.10;7.27;;;15.90;49.90;;;;;;5051495;28;20437;-71
2022/06/10 01:23:57;;;;;;;12.17;6.63;;;16.00;49.70;;;;;;5045272;28;20431;-71
2022/06/10 01:29:46;;;;;;;11.30;6.80;;;16.10;47.90;;;;;;5039068;28;20401;-71
2022/06/10 01:32:25;;;;;;;15.13;6.80;;;16.20;49.30;;;;;;5032517;28;20859;-71
2022/06/10 01:34:56;;;;;;;13.67;6.40;;;16.00;49.40;;;;;;5039139;28;20488;-72
2022/06/10 01:37:26;;;;;;;12.80;6.40;;;15.90;48.30;;;;;;5030956;28;20847;-71
2022/06/10 01:40:18;;;;;;;11.67;6.10;;;15.80;47.60;;;;;;5030978;28;20407;-71
2022/06/10 01:43:16;;;;;;;12.57;7.10;;;15.80;49.90;;;;;;5036483;28;20501;-71
2022/06/10 01:46:00;;;;;;;17.37;6.40;;;15.70;50.40;;;;;;5038840;28;20454;-71
2022/06/10 01:48:25;;;;;;;8.77;6.10;;;15.90;49.50;;;;;;5030758;28;20457;-71
2022/06/10 01:51:11;;;;;;;14.87;6.80;;;15.80;48.40;;;;;;5038883;28;20939;-74
2022/06/10 01:53:44;;;;;;;13.50;6.27;;;15.70;49.20;;;;;;5042309;28;20653;-71
2022/06/10 01:56:21;;;;;;;10.23;5.60;;;15.70;49.30;;;;;;5039875;28;20442;-71
2022/06/10 01:58:58;;;;;;;13.07;5.87;;;15.60;49.90;;;;;;5038451;28;20968;-73
2022/06/10 02:01:32;;;;;;;17.40;5.93;;;15.70;49.50;;;;;;5046420;28;20454;-72
2022/06/10 02:04:25;;;;;;;9.50;5.83;;;15.70;49.30;;;;;;5043296;28;20432;-74
2022/06/10 02:06:55;;;;;;;11.63;5.10;;;15.90;46.60;;;;;;5041450;28;20455;-71
2022/06/10 02:09:42;;;;;;;10.87;6.07;;;15.90;47.00;;;;;;5054562;28;20397;-71
2022/06/10 02:12:17;;;;;;;13.07;5.70;;;15.90;47.60;;;;;;5054199;28;20406;-73
2022/06/10 02:14:58;;;;;;;14.87;6.50;;;15.60;48.80;;;;;;5051400;28;20429;-71
2022/06/10 02:17:28;;;;;;;9.50;5.77;;;15.60;50.30;;;;;;5042326;28;20441;-74
2022/06/10 02:19:58;;;;;;;8.63;5.90;;;15.50;48.00;;;;;;5034336;28;20412;-72
2022/06/10 02:22:35;;;;;;;11.30;6.10;;;15.40;50.20;;;;;;5034309;28;20395;-73
2022/06/10 02:25:22;;;;;;;12.20;6.20;;;15.40;49.40;;;;;;5042267;28;20451;-71
2022/06/10 02:27:51;;;;;;;9.20;5.77;;;15.30;50.30;;;;;;5050637;28;20480;-71
2022/06/10 02:30:29;;;;;;;13.07;5.63;;;15.30;51.50;;;;;;5053962;28;20443;-71
2022/06/10 02:32:57;;;;;;;9.20;5.63;;;15.30;50.80;;;;;;5053095;28;20790;-72
2022/06/10 02:35:27;;;;;;;11.60;5.83;;;15.60;49.10;;;;;;5044687;28;20985;-71
2022/06/10 02:38:09;;;;;;;12.73;6.50;;;15.80;48.00;;;;;;5045941;28;20445;-75
2022/06/10 02:40:38;;;;;;;16.90;5.50;;;15.90;48.10;;;;;;5045644;28;20772;-71
2022/06/10 02:43:14;;;;;;;11.20;6.27;;;15.70;47.90;;;;;;5044040;28;20421;-71
2022/06/10 02:46:15;;;;;;;16.90;6.23;;;15.60;49.10;;;;;;5045363;28;20971;-71
2022/06/10 02:49:02;;;;;;;13.33;6.43;;;15.40;49.30;;;;;;5024472;28;20442;-72
2022/06/10 02:51:29;;;;;;;10.20;5.73;;;15.30;50.20;;;;;;5040811;28;20421;-71
2022/06/10 02:53:55;;;;;;;10.57;6.13;;;15.20;49.50;;;;;;5041837;28;20434;-71
2022/06/10 02:56:25;;;;;;;10.13;5.33;;;15.20;51.50;;;;;;5033715;28;20953;-72
2022/06/10 03:01:48;;;;;;;15.43;6.00;;;15.10;52.30;;;;;;5043830;28;20591;-72
2022/06/10 03:04:25;;;;;;;18.30;6.37;;;15.10;51.90;;;;;;5049561;28;20427;-72
2022/06/10 03:07:02;;;;;;;10.03;6.20;;;15.20;51.30;;;;;;5048787;28;20407;-74
2022/06/10 03:09:39;;;;;;;9.83;6.17;;;15.10;50.90;;;;;;5053254;28;20391;-72
2022/06/10 03:12:40;;;;;;;9.90;6.20;;;15.20;51.00;;;;;;5050228;28;20440;-75
2022/06/10 03:15:13;;;;;;;14.30;6.50;;;14.80;50.80;;;;;;5050830;28;20440;-73
2022/06/10 03:17:53;;;;;;;10.63;6.00;;;15.10;50.10;;;;;;5051596;28;21018;-72
2022/06/10 03:20:36;;;;;;;13.23;7.00;;;15.10;50.50;;;;;;5053183;28;20885;-72
2022/06/10 03:23:16;;;;;;;11.20;7.83;;;15.20;51.10;;;;;;5048340;28;20421;-73
2022/06/10 03:25:45;;;;;;;13.37;7.93;;;15.50;49.70;;;;;;5033128;28;20436;-73
2022/06/10 03:28:23;;;;;;;11.23;7.93;;;15.30;50.60;;;;;;5032964;28;20885;-72
2022/06/10 03:31:03;;;;;;;12.90;8.53;;;15.30;50.40;;;;;;5040868;28;20396;-72
2022/06/10 03:33:53;;;;;;;15.80;8.03;;;15.20;51.00;;;;;;5049711;28;20422;-72
2022/06/10 03:36:23;;;;;;;16.27;9.07;;;18.80;53.50;;;;;;5041626;28;20912;-73
2022/06/10 03:38:50;;;;;;;18.60;9.07;;;15.10;50.90;;;;;;5045340;28;20434;-72
2022/06/10 03:41:32;;;;;;;15.30;8.63;;;15.20;50.20;;;;;;5050478;28;20410;-72
2022/06/10 03:44:02;;;;;;;15.10;9.13;;;15.00;51.30;;;;;;5048140;28;20430;-74
2022/06/10 03:46:32;;;;;;;16.37;9.90;;;15.10;52.30;;;;;;5045631;28;20876;-72
2022/06/10 03:49:05;;;;;;;14.43;10.10;;;15.30;50.50;;;;;;5051557;28;20807;-72
2022/06/10 03:51:32;;;;;;;29.00;10.37;;;15.30;50.70;;;;;;5043496;28;20439;-75
2022/06/10 03:53:58;;;;;;;16.43;9.30;;;15.30;50.90;;;;;;5050377;28;20931;-72
2022/06/10 03:56:24;;;;;;;17.90;9.80;;;15.30;50.40;;;;;;5044435;28;20455;-72
2022/06/10 03:58:51;;;;;;;15.10;9.40;;;15.30;51.00;;;;;;5051792;28;20469;-72
2022/06/10 04:01:17;;;;;;;14.63;10.13;;;15.20;51.40;;;;;;5052177;28;20406;-72
2022/06/10 04:03:42;;;;;;;14.40;9.50;;;15.00;53.20;;;;;;5049988;28;20496;-72
2022/06/10 04:06:08;;;;;;;15.50;10.07;;;15.10;52.70;;;;;;5041806;28;20461;-72
2022/06/10 04:08:34;;;;;;;20.33;9.57;;;15.30;51.90;;;;;;5032198;28;20197;-72
2022/06/10 04:11:00;;;;;;;13.03;8.63;;;15.30;51.80;;;;;;5032109;28;20223;-72
2022/06/10 04:13:26;;;;;;;16.27;8.83;;;15.30;51.10;;;;;;5037714;28;20529;-72
2022/06/10 04:15:51;;;;;;;11.93;8.47;;;15.40;52.60;;;;;;5043730;28;20188;-72
2022/06/10 04:18:17;;;;;;;13.33;8.10;;;15.40;51.90;;;;;;5048001;28;20209;-75
2022/06/10 04:20:43;;;;;;;15.83;8.40;;;15.50;50.80;;;;;;5039990;28;20181;-73
2022/06/10 04:23:09;;;;;;;17.10;7.67;;;15.90;51.20;;;;;;5032394;28;20191;-72
2022/06/10 04:25:37;;;;;;;13.67;7.30;;;15.50;50.80;;;;;;5042131;28;20193;-72
2022/06/10 04:28:04;;;;;;;11.93;7.50;;;15.40;50.20;;;;;;5051394;28;20469;-72
2022/06/10 04:30:39;;;;;;;17.13;8.00;;;15.40;51.70;;;;;;5046528;28;20428;-72
2022/06/10 04:33:05;;;;;;;14.80;7.33;;;15.30;50.80;;;;;;5049026;28;20424;-72
2022/06/10 04:35:32;;;;;;;14.20;7.73;;;15.30;51.30;;;;;;5050174;28;20447;-72
2022/06/10 04:37:58;;;;;;;14.57;7.67;;;15.20;50.90;;;;;;5034813;28;20906;-73
2022/06/10 04:40:27;;;;;;;17.60;7.13;;;15.30;50.70;;;;;;5040268;28;20461;-72
2022/06/10 04:42:54;;;;;;;9.47;6.43;;;15.10;51.50;;;;;;5035403;28;20431;-72
2022/06/10 04:45:23;;;;;;;12.80;7.07;;;15.00;52.60;;;;;;5039182;28;20460;-74
2022/06/10 04:47:49;;;;;;;16.73;9.10;;;14.70;53.70;;;;;;5038253;28;20473;-72
2022/06/10 04:50:17;;;;;;;17.33;10.20;;;14.90;52.80;;;;;;5039724;28;20969;-72
2022/06/10 04:52:44;;;;;;;18.23;9.37;;;15.00;53.20;;;;;;5031210;28;20168;-72
2022/06/10 04:55:10;;;;;;;22.40;10.00;;;15.30;52.00;;;;;;5032198;28;21035;-72
2022/06/10 04:57:36;;;;;;;18.03;9.00;;;15.60;51.00;;;;;;5038485;28;20551;-72
2022/06/10 05:00:05;;;;;;;18.27;8.80;;;15.80;50.10;;;;;;5051232;28;20497;-72
2022/06/10 05:02:30;;;;;;;14.17;8.27;;;15.70;49.40;;;;;;5051214;28;20912;-72
2022/06/10 05:04:56;;;;;;;17.27;8.87;;;15.50;50.50;;;;;;5050171;28;20453;-74
2022/06/10 05:07:22;;;;;;;15.17;9.10;;;15.70;50.40;;;;;;5046512;28;20204;-72
2022/06/10 05:09:47;;;;;;;18.30;9.80;;;16.00;50.00;;;;;;5042380;28;20197;-72
2022/06/10 05:12:13;;;;;;;13.00;8.63;;;16.00;48.40;;;;;;5048450;28;20254;-72
2022/06/10 05:14:38;;;;;;;17.47;9.63;;;16.30;49.30;;;;;;5037830;28;20187;-73
2022/06/10 05:17:04;;;;;;;20.90;9.80;;;16.10;47.90;;;;;;5046933;28;20246;-72
2022/06/10 05:19:30;;;;;;;15.90;9.47;;;15.90;48.90;;;;;;5036798;28;20185;-72
2022/06/10 05:21:56;;;;;;;18.03;8.40;;;12.80;45.70;;;;;;5038492;28;20806;-72
2022/06/10 05:24:22;;;;;;;14.73;8.10;;;16.30;47.70;;;;;;5031124;28;20204;-73
2022/06/10 05:26:48;;;;;;;14.43;7.27;;;16.40;48.00;;;;;;5037039;28;20469;-72
2022/06/10 05:29:13;;;;;;;14.70;7.00;;;16.60;48.20;;;;;;5039775;28;20188;-72
2022/06/10 05:31:39;;;;;;;13.87;6.57;;;16.20;46.40;;;;;;5039363;28;20178;-72
2022/06/10 05:36:49;;;;;;;11.23;7.07;;;16.30;48.90;;;;;;5043155;28;20190;-73
2022/06/10 05:39:15;;;;;;;22.57;7.10;;;16.80;48.90;;;;;;5045496;28;20458;-72
2022/06/10 05:44:39;;;;;;;8.70;6.53;;;17.00;44.20;;;;;;4990164;28;20318;-72
2022/06/10 05:47:07;;;;;;;14.53;6.83;;;16.70;48.30;;;;;;4980377;28;20463;-75
2022/06/10 05:49:35;;;;;;;10.33;7.20;;;16.70;46.00;;;;;;4986717;28;20449;-72
2022/06/10 05:52:01;;;;;;;13.87;7.30;;;16.80;48.60;;;;;;4983112;28;20434;-72
2022/06/10 05:54:27;;;;;;;13.43;7.43;;;20.10;51.20;;;;;;4984185;28;20522;-72
2022/06/10 05:56:52;;;;;;;43.43;9.43;;;17.40;45.20;;;;;;4984145;28;21980;-72
2022/06/10 05:59:18;;;;;;;15.20;7.70;;;17.40;45.00;;;;;;4991671;28;20915;-72
2022/06/10 06:01:45;;;;;;;17.03;7.40;;;17.30;45.90;;;;;;4991333;28;20198;-72
2022/06/10 06:04:10;;;;;;;18.63;7.53;;;17.50;45.20;;;;;;4980916;28;20654;-72
2022/06/10 06:06:36;;;;;;;14.00;7.57;;;17.80;46.30;;;;;;4986340;28;20573;-73
2022/06/10 06:09:03;;;;;;;29.60;7.17;;;17.90;45.80;;;;;;4988916;28;20235;-72
2022/06/10 06:11:28;;;;;;;12.20;6.70;;;17.30;43.50;;;;;;4985804;28;20449;-72
2022/06/10 06:13:54;;;;;;;16.63;7.53;;;16.70;46.60;;;;;;4981915;28;20484;-72
2022/06/10 06:16:21;;;;;;;15.37;6.60;;;16.40;48.30;;;;;;4986800;28;20198;-72
2022/06/10 06:18:48;;;;;;;15.57;6.85;;;16.40;49.40;;;;;;4983619;28;20487;-73
2022/06/10 06:21:13;;;;;;;15.23;5.67;;;16.40;47.70;;;;;;5034019;28;20199;-72
2022/06/10 06:23:41;;;;;;;10.53;5.27;;;16.60;47.90;;;;;;5045750;28;20782;-72
2022/06/10 06:26:10;;;;;;;18.70;5.77;;;16.60;47.10;;;;;;5042882;28;20481;-76
2022/06/10 06:28:36;;;;;;;18.53;6.13;;;17.20;47.40;;;;;;5039370;28;21012;-73
2022/06/10 06:31:01;;;;;;;14.80;5.97;;;17.10;46.20;;;;;;5045966;28;20548;-72
2022/06/10 06:33:27;;;;;;;14.77;6.47;;;16.90;46.60;;;;;;5046645;28;20181;-73
2022/06/10 06:35:54;;;;;;;11.20;5.50;;;17.10;46.00;;;;;;5041923;28;20255;-75
2022/06/10 06:38:22;;;;;;;11.70;4.90;;;17.40;46.10;;;;;;5048199;28;20205;-74
2022/06/10 06:40:48;;;;;;;13.57;5.13;;;17.30;46.20;;;;;;5042934;28;20440;-72
2022/06/10 06:43:13;;;;;;;13.60;5.47;;;17.00;47.30;;;;;;5046747;28;20438;-72
2022/06/10 06:45:40;;;;;;;10.67;5.20;;;17.60;45.40;;;;;;5044533;28;20481;-72
2022/06/10 06:48:09;;;;;;;11.70;5.43;;;18.20;44.50;;;;;;5034450;28;20230;-72
2022/06/10 06:50:39;;;;;;;15.53;5.63;;;18.80;41.70;;;;;;5045218;28;20511;-73
2022/06/10 06:53:04;;;;;;;14.20;5.60;;;18.60;41.50;;;;;;5051296;28;20436;-75
2022/06/10 06:55:30;;;;;;;16.13;5.13;;;17.90;44.90;;;;;;5048744;28;20498;-73
2022/06/10 06:57:56;;;;;;;17.13;5.40;;;17.70;45.10;;;;;;5036460;28;20221;-73
2022/06/10 07:00:22;;;;;;;11.80;5.00;;;17.80;45.50;;;;;;5046459;28;20496;-73
2022/06/10 07:02:47;;;;;;;13.03;5.13;;;18.60;43.30;;;;;;5042754;28;20193;-73
2022/06/10 07:05:13;;;;;;;16.23;5.50;;;19.00;43.00;;;;;;5042501;28;20676;-72
2022/06/10 07:07:40;;;;;;;11.77;5.37;;;19.20;41.50;;;;;;5047822;28;20228;-77
2022/06/10 07:10:07;;;;;;;14.43;5.40;;;19.20;42.20;;;;;;5046678;28;20438;-73
2022/06/10 07:12:33;;;;;;;14.63;5.83;;;19.50;40.10;;;;;;5039813;28;20952;-72
2022/06/10 07:14:59;;;;;;;10.93;4.90;;;19.40;39.70;;;;;;5036630;28;20432;-76
2022/06/10 07:17:24;;;;;;;12.63;5.83;;;19.10;41.10;;;;;;5043845;28;20700;-72
2022/06/10 07:19:51;;;;;;;11.73;5.23;;;18.60;41.60;;;;;;5037343;28;20425;-74
2022/06/10 07:22:18;;;;;;;16.43;5.70;;;18.10;43.60;;;;;;5032887;28;20219;-75
2022/06/10 07:24:43;;;;;;;14.93;5.00;;;18.40;43.40;;;;;;5046280;28;20457;-73
2022/06/10 07:27:10;;;;;;;11.20;5.30;;;19.10;41.40;;;;;;5036561;28;20773;-72
2022/06/10 07:29:37;;;;;;;16.97;4.97;;;19.00;40.70;;;;;;5041528;28;20173;-77
2022/06/10 07:32:03;;;;;;;16.70;4.60;;;19.00;40.50;;;;;;5044321;28;20927;-72
2022/06/10 07:34:29;;;;;;;14.33;5.13;;;18.80;42.10;;;;;;5039284;28;20776;-73
2022/06/10 07:36:55;;;;;;;14.63;5.20;;;19.50;39.50;;;;;;5068315;22;20903;-70
2022/06/10 07:39:20;;;;;;;13.90;5.00;;;19.90;38.50;;;;;;5044466;28;20447;-70
2022/06/10 07:42:19;;;;;;;13.37;5.13;;;19.60;38.20;;;;;;5048711;28;20179;-69
2022/06/10 07:44:38;;;;;;;10.27;4.30;;;19.00;40.80;;;;;;5046576;28;20195;-69
2022/06/10 07:47:08;;;;;;;10.07;4.50;;;18.80;40.50;;;;;;5052674;28;20434;-69
2022/06/10 07:49:34;;;;;;;12.53;4.57;;;18.80;40.10;;;;;;5051902;28;20220;-69
2022/06/10 07:52:00;;;;;;;16.93;5.27;;;19.00;40.80;;;;;;5047624;28;20457;-69
2022/06/10 07:54:26;;;;;;;12.40;4.50;;;19.70;38.40;;;;;;5041664;28;20469;-69
2022/06/10 07:56:52;;;;;;;11.97;4.20;;;20.10;37.30;;;;;;5043722;28;20521;-71
2022/06/10 07:59:18;;;;;;;13.97;4.83;;;19.70;36.40;;;;;;5040654;28;20229;-70
2022/06/10 08:01:44;;;;;;;10.10;4.40;;;19.60;36.30;;;;;;5045943;28;20434;-69
2022/06/10 08:04:10;;;;;;;11.27;4.17;;;20.00;35.40;;;;;;5050108;28;20430;-70
2022/06/10 08:06:44;;;;;;;12.13;4.80;;;20.40;36.30;;;;;;5042601;28;20210;-70
2022/06/10 08:09:11;;;;;;;13.60;4.77;;;20.70;35.50;;;;;;5048897;28;20455;-70
2022/06/10 08:11:37;;;;;;;14.83;5.03;;;21.00;34.00;;;;;;5044693;28;20488;-70
2022/06/10 08:14:04;;;;;;;9.47;4.60;;;21.10;33.90;;;;;;5040283;28;20653;-69
2022/06/10 08:16:30;;;;;;;12.97;5.10;;;20.90;34.20;;;;;;5043663;28;20447;-69
2022/06/10 08:18:56;;;;;;;13.83;4.70;;;20.80;33.40;;;;;;5046550;28;20422;-70
2022/06/10 08:24:06;;;;;;;12.90;4.77;;;20.80;33.10;;;;;;5046017;28;20234;-69
2022/06/10 08:26:33;;;;;;;10.93;4.70;;;20.50;33.20;;;;;;5045710;28;20471;-70
2022/06/10 08:29:00;;;;;;;17.87;4.60;;;20.70;34.20;;;;;;5042984;28;20430;-70
2022/06/10 08:31:27;;;;;;;11.43;4.13;;;21.20;32.50;;;;;;5038181;28;20931;-70
2022/06/10 08:33:52;;;;;;;21.13;4.50;;;21.50;32.60;;;;;;5045375;28;20432;-70
2022/06/10 08:36:18;;;;;;;7.80;3.57;;;21.80;29.70;;;;;;5042040;28;20498;-70
2022/06/10 08:38:44;;;;;;;11.10;3.50;;;21.80;29.30;;;;;;5047612;28;20256;-70
2022/06/10 08:41:19;;;;;;;12.60;3.83;;;22.00;28.20;;;;;;5040841;28;20440;-71
2022/06/10 08:44:03;;;;;;;14.30;4.50;;;21.90;27.30;;;;;;5050427;28;20182;-69
2022/06/10 08:46:28;;;;;;;10.40;4.10;;;22.00;29.20;;;;;;5050056;28;20563;-70
2022/06/10 08:49:12;;;;;;;13.50;3.90;;;22.20;28.40;;;;;;5048717;28;20526;-71
2022/06/10 08:51:52;;;;;;;7.23;3.50;;;22.00;28.30;;;;;;5043763;28;20268;-71
2022/06/10 08:54:31;;;;;;;8.93;3.50;;;21.20;29.00;;;;;;5047849;28;20454;-71
2022/06/10 08:57:04;;;;;;;9.47;3.63;;;21.10;29.00;;;;;;5043848;28;20442;-70
2022/06/10 08:59:45;;;;;;;14.17;4.10;;;20.60;29.80;;;;;;5040306;28;20423;-70
2022/06/10 09:02:31;;;;;;;17.40;4.30;;;20.80;29.20;;;;;;5033029;28;20398;-70
2022/06/10 09:05:10;;;;;;;9.43;3.80;;;20.80;29.80;;;;;;5043129;28;20453;-70
2022/06/10 09:07:50;;;;;;;13.60;3.87;;;21.70;27.70;;;;;;5037612;28;20444;-70
2022/06/10 09:10:21;;;;;;;15.63;4.37;;;22.10;29.90;;;;;;5044455;28;20433;-70
2022/06/10 09:13:25;;;;;;;12.57;3.70;;;22.40;27.70;;;;;;5050180;28;21001;-70
2022/06/10 09:16:55;;;;;;;10.83;3.80;;;22.40;26.60;;;;;;5048748;28;20495;-69
2022/06/10 09:19:54;;;;;;;10.40;3.70;;;22.80;28.50;;;;;;4966685;28;20446;-70
2022/06/10 09:22:20;;;;;;;10.20;3.90;;;22.90;28.00;;;;;;5050146;28;20455;-70
2022/06/10 09:25:07;;;;;;;13.37;3.93;;;23.00;26.90;;;;;;5047934;28;20470;-69
2022/06/10 09:27:47;;;;;;;10.33;4.20;;;23.00;26.90;;;;;;5050334;28;20662;-70
2022/06/10 09:30:16;;;;;;;9.10;3.67;;;22.90;26.90;;;;;;5051738;28;20947;-70
2022/06/10 09:32:45;;;;;;;7.97;4.00;;;23.40;27.40;;;;;;5053544;28;20432;-70
2022/06/10 09:35:29;;;;;;;10.63;4.10;;;24.90;28.90;;;;;;5046619;28;20439;-70
2022/06/10 09:38:11;;;;;;;11.20;4.60;;;23.60;26.20;;;;;;5041625;28;20416;-70
2022/06/10 09:40:40;;;;;;;13.63;3.57;;;23.20;27.50;;;;;;5050713;28;20428;-70
2022/06/10 09:43:17;;;;;;;11.10;3.77;;;23.30;26.40;;;;;;5051538;28;20429;-69
2022/06/10 09:46:10;;;;;;;13.00;3.97;;;23.70;26.00;;;;;;5030363;28;20551;-70
2022/06/10 09:48:51;;;;;;;17.37;4.03;;;23.30;25.70;;;;;;5044503;28;20442;-70
2022/06/10 09:51:27;;;;;;;11.40;3.97;;;23.70;25.60;;;;;;5050162;28;20442;-70
2022/06/10 09:54:08;;;;;;;8.17;3.50;;;23.60;26.00;;;;;;5049295;28;20439;-70
2022/06/10 09:56:47;;;;;;;11.23;3.70;;;24.10;25.00;;;;;;5055903;28;20460;-70
2022/06/10 09:59:35;;;;;;;9.47;3.30;;;24.40;25.10;;;;;;5048483;28;20512;-69
2022/06/10 10:02:13;;;;;;;12.77;3.77;;;24.70;26.10;;;;;;5050704;28;20930;-70
2022/06/10 10:05:33;;;;;;;12.23;3.63;;;24.10;23.70;;;;;;5035134;28;20963;-70
2022/06/10 10:08:21;;;;;;;9.07;4.10;;;22.40;27.40;;;;;;4990872;28;20436;-69
2022/06/10 10:11:07;;;;;;;7.27;3.73;;;22.80;25.70;;;;;;4978766;28;20966;-69
2022/06/10 10:13:57;;;;;;;10.50;3.57;;;22.20;26.60;;;;;;4993635;28;20439;-69
2022/06/10 10:16:47;;;;;;;7.83;3.80;;;22.00;27.50;;;;;;4990097;28;20482;-70
2022/06/10 10:19:34;;;;;;;10.63;3.50;;;22.40;27.70;;;;;;4994514;28;20902;-70
2022/06/10 10:22:16;;;;;;;10.17;4.13;;;23.40;25.80;;;;;;4994456;28;20443;-71
2022/06/10 10:24:44;;;;;;;10.90;3.97;;;24.20;25.40;;;;;;4991438;28;20432;-70
2022/06/10 10:27:31;;;;;;;10.70;3.70;;;23.60;24.00;;;;;;4988163;28;21393;-70
2022/06/10 10:30:22;;;;;;;11.30;3.60;;;22.90;25.20;;;;;;4987184;28;20489;-70
2022/06/10 10:32:55;;;;;;;8.07;3.57;;;22.90;25.50;;;;;;4981716;28;20460;-70
2022/06/10 10:35:26;;;;;;;10.90;3.70;;;22.80;25.60;;;;;;4990766;28;20514;-70
2022/06/10 10:37:59;;;;;;;8.43;3.73;;;23.40;24.70;;;;;;4992585;28;20406;-70
2022/06/10 10:40:41;;;;;;;13.60;4.30;;;23.90;24.00;;;;;;4992074;28;20405;-70
2022/06/10 10:43:18;;;;;;;8.20;3.60;;;24.10;24.40;;;;;;5051634;28;20813;-70
2022/06/10 10:45:56;;;;;;;12.93;4.10;;;23.40;24.70;;;;;;5053853;28;20991;-70
2022/06/10 10:48:27;;;;;;;9.27;3.70;;;23.70;24.80;;;;;;5053828;28;20412;-70
2022/06/10 10:51:00;;;;;;;10.10;3.73;;;23.10;25.00;;;;;;5053997;28;20739;-71
2022/06/10 10:53:45;;;;;;;9.60;4.17;;;23.00;25.00;;;;;;5053620;28;20935;-70
2022/06/10 10:56:13;;;;;;;7.70;3.27;;;23.00;26.10;;;;;;5055769;28;20460;-70
2022/06/10 10:58:52;;;;;;;10.50;3.37;;;24.20;24.70;;;;;;5056292;28;20425;-70
2022/06/10 11:01:44;;;;;;;12.47;3.90;;;24.50;23.60;;;;;;5054043;28;20497;-70
2022/06/10 11:04:24;;;;;;;10.07;3.73;;;24.70;26.30;;;;;;5052448;28;20471;-70
2022/06/10 11:07:00;;;;;;;9.67;3.77;;;25.10;24.50;;;;;;5053562;28;20493;-70
2022/06/10 11:09:26;;;;;;;14.00;3.93;;;25.00;22.80;;;;;;5053346;28;20488;-69
2022/06/10 11:11:53;;;;;;;9.07;3.30;;;25.20;22.20;;;;;;5053525;28;20410;-70
2022/06/10 11:14:25;;;;;;;8.83;3.40;;;25.70;23.70;;;;;;5052699;28;20916;-70
2022/06/10 11:16:57;;;;;;;6.20;3.20;;;24.70;21.60;;;;;;5053155;28;20437;-70
2022/06/10 11:19:31;;;;;;;5.70;2.90;;;24.30;23.40;;;;;;5053575;28;20604;-70
2022/06/10 11:22:19;;;;;;;6.03;3.20;;;24.20;22.80;;;;;;5053299;28;20421;-70
2022/06/10 11:24:49;;;;;;;9.17;3.43;;;24.50;23.00;;;;;;5052838;28;20414;-70
2022/06/10 11:27:23;;;;;;;8.87;3.20;;;24.80;21.80;;;;;;5053444;28;20473;-70
2022/06/10 11:30:05;;;;;;;7.67;3.40;;;25.10;22.10;;;;;;5053494;28;20433;-70
2022/06/10 11:32:48;;;;;;;5.50;3.33;;;25.30;24.30;;;;;;5053033;28;20415;-70
2022/06/10 11:35:26;;;;;;;7.50;3.40;;;25.20;22.70;;;;;;5052512;28;20784;-70
2022/06/10 11:38:08;;;;;;;13.43;4.00;;;25.90;24.30;;;;;;5053050;28;20390;-70
2022/06/10 11:40:37;;;;;;;12.07;4.60;;;26.30;22.30;;;;;;5052808;28;20403;-70
2022/06/10 11:43:25;;;;;;;10.10;3.50;;;26.50;22.90;;;;;;5052687;28;20916;-70
2022/06/10 11:46:02;;;;;;;12.00;3.67;;;25.90;22.80;;;;;;5052397;28;20972;-70
2022/06/10 11:48:45;;;;;;;5.20;3.13;;;26.80;21.90;;;;;;5052841;28;20410;-70
2022/06/10 11:51:21;;;;;;;5.97;3.37;;;27.30;20.70;;;;;;5052724;28;20758;-70
2022/06/10 11:54:17;;;;;;;8.57;3.47;;;27.70;19.40;;;;;;5052976;28;20433;-69
2022/06/10 11:59:59;;;;;;;11.90;4.70;;;26.00;21.70;;;;;;5052755;28;20425;-69
2022/06/10 12:02:35;;;;;;;9.03;3.43;;;25.70;22.30;;;;;;5052572;28;20406;-69
2022/06/10 12:05:00;;;;;;;6.70;3.20;;;25.20;22.60;;;;;;5051748;28;20811;-69
2022/06/10 12:07:27;;;;;;;6.70;3.20;;;25.40;23.70;;;;;;5052440;28;20434;-70
2022/06/10 12:09:56;;;;;;;6.30;3.07;;;26.80;22.50;;;;;;5052099;28;20549;-70
2022/06/10 12:12:29;;;;;;;7.37;3.27;;;27.70;19.40;;;;;;5052315;28;20441;-70
2022/06/10 12:14:58;;;;;;;5.90;3.00;;;27.90;20.20;;;;;;5052109;28;20866;-70
2022/06/10 12:17:27;;;;;;;17.40;3.30;;;27.60;22.50;;;;;;5052236;28;20438;-69
2022/06/10 12:20:36;;;;;;;6.77;3.10;;;27.20;20.50;;;;;;5052293;28;20407;-70
2022/06/10 12:23:24;;;;;;;11.20;3.20;;;26.40;22.80;;;;;;5031151;28;20489;-69
2022/06/10 12:26:06;;;;;;;9.40;3.17;;;26.40;22.90;;;;;;5049209;28;20470;-69
2022/06/10 12:28:50;;;;;;;5.70;3.20;;;26.30;20.80;;;;;;5043313;28;20956;-70
2022/06/10 12:31:22;;;;;;;12.47;3.50;;;25.80;23.20;;;;;;5043782;28;20494;-71
2022/06/10 12:34:01;;;;;;;6.90;2.93;;;25.90;23.90;;;;;;5041690;28;20423;-70
2022/06/10 12:36:44;;;;;;;12.83;3.63;;;25.90;23.80;;;;;;5037999;28;20507;-71
2022/06/10 12:39:50;;;;;;;10.70;3.63;;;25.70;24.30;;;;;;5038036;28;20568;-70
2022/06/10 12:42:39;;;;;;;9.37;4.20;;;25.70;23.90;;;;;;5037044;28;20936;-70
2022/06/10 12:45:15;;;;;;;7.93;3.53;;;25.70;25.20;;;;;;5032129;28;20601;-70
2022/06/10 12:47:42;;;;;;;9.17;4.10;;;25.70;24.40;;;;;;5039782;28;20439;-70
2022/06/10 12:50:19;;;;;;;11.17;3.87;;;26.00;23.30;;;;;;5043012;28;20422;-70
2022/06/10 12:53:09;;;;;;;7.67;3.30;;;26.80;23.80;;;;;;5041504;28;20450;-73
2022/06/10 12:55:56;;;;;;;7.87;3.33;;;27.30;19.80;;;;;;5061201;28;20444;-70
2022/06/10 12:58:39;;;;;;;7.87;3.47;;;28.20;19.20;;;;;;5054258;28;20442;-72
2022/06/10 13:01:13;;;;;;;10.63;3.23;;;28.90;19.30;;;;;;5051170;28;20425;-71
2022/06/10 13:03:40;;;;;;;8.40;3.13;;;29.80;20.20;;;;;;5045215;28;20432;-72
2022/06/10 13:06:24;;;;;;;13.30;3.33;;;30.00;16.50;;;;;;5044138;28;20829;-72
2022/06/10 13:08:53;;;;;;;10.77;3.17;;;29.80;19.00;;;;;;5041979;28;21815;-72
2022/06/10 13:11:30;;;;;;;7.77;2.87;;;29.50;18.70;;;;;;5038363;28;20427;-71
2022/06/10 13:14:33;;;;;;;6.73;3.03;;;29.10;18.10;;;;;;5047222;28;20519;-73
2022/06/10 13:16:58;;;;;;;6.97;2.67;;;28.80;18.00;;;;;;5029196;28;20905;-71
2022/06/10 13:19:36;;;;;;;7.03;3.20;;;29.30;17.90;;;;;;5041890;28;20448;-73
2022/06/10 13:22:20;;;;;;;10.90;3.03;;;28.90;16.80;;;;;;5039705;28;20207;-72
2022/06/10 13:24:52;;;;;;;10.73;3.30;;;27.00;19.70;;;;;;5025440;28;20429;-69
2022/06/10 13:27:31;;;;;;;7.20;2.93;;;27.10;20.80;;;;;;5040202;28;20956;-69
2022/06/10 13:30:16;;;;;;;7.03;3.70;;;28.10;22.50;;;;;;5046121;28;20459;-69